VHHH/HKG METAR and TAF weather

Enter ICAO airport designator
Station Type Date Time Source
VHHH METAR 2018/12/13 21:00 UTC NOAA

VHHH 132100Z 03004KT 9999 FEW024 14/08 Q1025 NOSIG


Station Type Date Time Source
VHHH Decoded METAR 2018/12/13 21:00 UTC NOAA

Hong Kong Inter-National Airport, Hong Kong (VHHH) 22-20N 114-11E 24M
Dec 13, 2018 - 04:00 PM EST / 2018.12.13 2100 UTC
Wind: from the NNE (030 degrees) at 5 MPH (4 KT):0
Visibility: greater than 7 mile(s):0
Sky conditions: mostly clear
Temperature: 57 F (14 C)
Dew Point: 46 F (8 C)
Relative Humidity: 67%
Pressure (altimeter): 30.27 in. Hg (1025 hPa)
ob: VHHH 132100Z 03004KT 9999 FEW024 14/08 Q1025 NOSIG
cycle: 21

Station Type Date Time Source
VHHH TAF 2018/12/13 18:22 UTC NOAA

TAF VHHH 131700Z 1318/1424 04010KT 9999 FEW030 TX19/1406Z TN14/1323Z TN16/1423Z
TEMPO 1403/1409 32010KT
TEMPO 1409/1415 VRB05KT


Example: see airport list